sensor_id;sensor_type;location;lat;lon;timestamp;temperature;humidity
47148;DHT22;32900;47.498;8.738;2022-08-19T00:01:58;18.30;99.90
47148;DHT22;32900;47.498;8.738;2022-08-19T00:04:32;18.20;99.90
47148;DHT22;32900;47.498;8.738;2022-08-19T00:07:00;18.20;99.90
47148;DHT22;32900;47.498;8.738;2022-08-19T00:09:28;18.30;99.90
47148;DHT22;32900;47.498;8.738;2022-08-19T00:11:56;18.30;99.90
47148;DHT22;32900;47.498;8.738;2022-08-19T00:14:26;18.30;99.90
47148;DHT22;32900;47.498;8.738;2022-08-19T00:16:53;18.30;99.90
47148;DHT22;32900;47.498;8.738;2022-08-19T00:19:22;18.30;99.90
47148;DHT22;32900;47.498;8.738;2022-08-19T00:21:49;18.30;99.90
47148;DHT22;32900;47.498;8.738;2022-08-19T00:24:16;18.40;99.90
47148;DHT22;32900;47.498;8.738;2022-08-19T00:26:43;18.50;99.90
47148;DHT22;32900;47.498;8.738;2022-08-19T00:29:14;18.50;99.90
47148;DHT22;32900;47.498;8.738;2022-08-19T00:31:41;18.50;99.90
47148;DHT22;32900;47.498;8.738;2022-08-19T00:34:09;18.40;99.90
47148;DHT22;32900;47.498;8.738;2022-08-19T00:36:38;18.40;99.90
47148;DHT22;32900;47.498;8.738;2022-08-19T00:39:05;18.40;99.90
47148;DHT22;32900;47.498;8.738;2022-08-19T00:41:32;18.30;99.90
47148;DHT22;32900;47.498;8.738;2022-08-19T00:44:06;18.30;99.90
47148;DHT22;32900;47.498;8.738;2022-08-19T00:46:34;18.30;99.90
47148;DHT22;32900;47.498;8.738;2022-08-19T00:49:10;18.30;99.90
47148;DHT22;32900;47.498;8.738;2022-08-19T00:51:38;18.30;99.90
47148;DHT22;32900;47.498;8.738;2022-08-19T00:54:05;18.40;99.90
47148;DHT22;32900;47.498;8.738;2022-08-19T00:56:32;18.40;99.90
47148;DHT22;32900;47.498;8.738;2022-08-19T00:59:01;18.40;99.90
47148;DHT22;32900;47.498;8.738;2022-08-19T01:01:28;18.40;99.90
47148;DHT22;32900;47.498;8.738;2022-08-19T01:03:55;18.30;99.90
47148;DHT22;32900;47.498;8.738;2022-08-19T01:06:25;18.30;99.90
47148;DHT22;32900;47.498;8.738;2022-08-19T01:08:54;18.40;99.90
47148;DHT22;32900;47.498;8.738;2022-08-19T01:11:21;18.40;99.90
47148;DHT22;32900;47.498;8.738;2022-08-19T01:13:48;18.40;99.90
47148;DHT22;32900;47.498;8.738;2022-08-19T01:16:18;18.30;99.90
47148;DHT22;32900;47.498;8.738;2022-08-19T01:18:46;18.30;99.90
47148;DHT22;32900;47.498;8.738;2022-08-19T01:21:22;18.30;99.90
47148;DHT22;32900;47.498;8.738;2022-08-19T01:23:52;18.20;99.90
47148;DHT22;32900;47.498;8.738;2022-08-19T01:26:21;18.30;99.90
47148;DHT22;32900;47.498;8.738;2022-08-19T01:28:51;18.30;99.90
47148;DHT22;32900;47.498;8.738;2022-08-19T01:31:22;18.30;99.90
47148;DHT22;32900;47.498;8.738;2022-08-19T01:33:55;18.30;99.90
47148;DHT22;32900;47.498;8.738;2022-08-19T01:36:31;18.30;99.90
47148;DHT22;32900;47.498;8.738;2022-08-19T01:38:59;18.30;99.90
47148;DHT22;32900;47.498;8.738;2022-08-19T01:41:26;18.30;99.90
47148;DHT22;32900;47.498;8.738;2022-08-19T01:43:53;18.30;99.90
47148;DHT22;32900;47.498;8.738;2022-08-19T01:46:41;18.30;99.90
47148;DHT22;32900;47.498;8.738;2022-08-19T01:49:08;18.30;99.90
47148;DHT22;32900;47.498;8.738;2022-08-19T01:51:36;18.30;99.90
47148;DHT22;32900;47.498;8.738;2022-08-19T01:54:07;18.30;99.90
47148;DHT22;32900;47.498;8.738;2022-08-19T01:56:33;18.30;99.90
47148;DHT22;32900;47.498;8.738;2022-08-19T01:59:04;18.30;99.90
47148;DHT22;32900;47.498;8.738;2022-08-19T02:01:32;18.30;99.90
47148;DHT22;32900;47.498;8.738;2022-08-19T02:04:01;18.30;99.90
47148;DHT22;32900;47.498;8.738;2022-08-19T02:06:28;18.30;99.90
47148;DHT22;32900;47.498;8.738;2022-08-19T02:08:55;18.30;99.90
47148;DHT22;32900;47.498;8.738;2022-08-19T02:11:28;18.30;99.90
47148;DHT22;32900;47.498;8.738;2022-08-19T02:13:58;18.30;99.90
47148;DHT22;32900;47.498;8.738;2022-08-19T02:16:25;18.30;99.90
47148;DHT22;32900;47.498;8.738;2022-08-19T02:18:52;18.10;99.90
47148;DHT22;32900;47.498;8.738;2022-08-19T02:21:21;18.00;99.90
47148;DHT22;32900;47.498;8.738;2022-08-19T02:58:32;18.00;99.90
47148;DHT22;32900;47.498;8.738;2022-08-19T03:00:59;18.00;99.90
47148;DHT22;32900;47.498;8.738;2022-08-19T03:03:26;18.10;99.90
47148;DHT22;32900;47.498;8.738;2022-08-19T03:06:04;18.20;99.90
47148;DHT22;32900;47.498;8.738;2022-08-19T03:08:31;18.20;99.90
47148;DHT22;32900;47.498;8.738;2022-08-19T03:10:57;18.20;99.90
47148;DHT22;32900;47.498;8.738;2022-08-19T03:13:24;18.30;99.90
47148;DHT22;32900;47.498;8.738;2022-08-19T03:15:51;18.30;99.90
47148;DHT22;32900;47.498;8.738;2022-08-19T03:18:18;18.20;99.90
47148;DHT22;32900;47.498;8.738;2022-08-19T03:20:48;18.20;99.90
47148;DHT22;32900;47.498;8.738;2022-08-19T03:23:16;18.20;99.90
47148;DHT22;32900;47.498;8.738;2022-08-19T03:25:47;17.90;99.90
47148;DHT22;32900;47.498;8.738;2022-08-19T03:28:29;18.10;99.90
47148;DHT22;32900;47.498;8.738;2022-08-19T03:31:00;18.10;99.90
47148;DHT22;32900;47.498;8.738;2022-08-19T03:33:28;18.10;99.90
47148;DHT22;32900;47.498;8.738;2022-08-19T03:36:13;18.10;99.90
47148;DHT22;32900;47.498;8.738;2022-08-19T03:38:44;18.20;99.90
47148;DHT22;32900;47.498;8.738;2022-08-19T03:41:14;18.20;99.90
47148;DHT22;32900;47.498;8.738;2022-08-19T03:43:42;18.20;99.90
47148;DHT22;32900;47.498;8.738;2022-08-19T03:46:18;18.20;99.90
47148;DHT22;32900;47.498;8.738;2022-08-19T03:48:50;18.20;99.90
47148;DHT22;32900;47.498;8.738;2022-08-19T03:51:33;18.30;99.90
47148;DHT22;32900;47.498;8.738;2022-08-19T03:54:05;18.30;99.90
47148;DHT22;32900;47.498;8.738;2022-08-19T03:56:35;18.20;99.90
47148;DHT22;32900;47.498;8.738;2022-08-19T03:59:03;18.20;99.90
47148;DHT22;32900;47.498;8.738;2022-08-19T04:01:30;18.20;99.90
47148;DHT22;32900;47.498;8.738;2022-08-19T04:04:02;18.10;99.90
47148;DHT22;32900;47.498;8.738;2022-08-19T04:06:32;18.20;99.90
47148;DHT22;32900;47.498;8.738;2022-08-19T04:09:03;18.30;99.90
47148;DHT22;32900;47.498;8.738;2022-08-19T04:11:34;18.30;99.90
47148;DHT22;32900;47.498;8.738;2022-08-19T04:14:12;18.40;99.90
47148;DHT22;32900;47.498;8.738;2022-08-19T04:16:40;18.30;99.90
47148;DHT22;32900;47.498;8.738;2022-08-19T04:19:07;18.30;99.90
47148;DHT22;32900;47.498;8.738;2022-08-19T04:21:34;18.10;99.90
47148;DHT22;32900;47.498;8.738;2022-08-19T04:24:02;18.10;99.90
47148;DHT22;32900;47.498;8.738;2022-08-19T04:26:33;18.10;99.90
47148;DHT22;32900;47.498;8.738;2022-08-19T04:29:05;18.00;99.90
47148;DHT22;32900;47.498;8.738;2022-08-19T04:31:37;18.10;99.90
47148;DHT22;32900;47.498;8.738;2022-08-19T04:34:06;18.00;99.90
47148;DHT22;32900;47.498;8.738;2022-08-19T04:36:35;17.90;99.90
47148;DHT22;32900;47.498;8.738;2022-08-19T04:39:09;17.90;99.90
47148;DHT22;32900;47.498;8.738;2022-08-19T04:41:37;17.90;99.90
47148;DHT22;32900;47.498;8.738;2022-08-19T04:44:22;18.00;99.90
47148;DHT22;32900;47.498;8.738;2022-08-19T04:46:50;18.00;99.90
47148;DHT22;32900;47.498;8.738;2022-08-19T04:49:20;18.10;99.90
47148;DHT22;32900;47.498;8.738;2022-08-19T04:51:50;18.10;99.90
47148;DHT22;32900;47.498;8.738;2022-08-19T04:54:22;18.00;99.90
47148;DHT22;32900;47.498;8.738;2022-08-19T04:57:04;18.00;99.90
47148;DHT22;32900;47.498;8.738;2022-08-19T04:59:33;18.00;99.90
47148;DHT22;32900;47.498;8.738;2022-08-19T05:02:00;18.00;99.90
47148;DHT22;32900;47.498;8.738;2022-08-19T05:04:27;18.10;99.90
47148;DHT22;32900;47.498;8.738;2022-08-19T05:06:58;18.00;99.90
47148;DHT22;32900;47.498;8.738;2022-08-19T05:09:27;18.10;99.90
47148;DHT22;32900;47.498;8.738;2022-08-19T05:12:14;18.10;99.90
47148;DHT22;32900;47.498;8.738;2022-08-19T05:14:41;18.10;99.90
47148;DHT22;32900;47.498;8.738;2022-08-19T05:17:08;18.10;99.90
47148;DHT22;32900;47.498;8.738;2022-08-19T05:19:53;18.20;99.90
47148;DHT22;32900;47.498;8.738;2022-08-19T05:22:38;18.20;99.90
47148;DHT22;32900;47.498;8.738;2022-08-19T05:25:09;18.10;99.90
47148;DHT22;32900;47.498;8.738;2022-08-19T05:27:40;18.10;99.90
47148;DHT22;32900;47.498;8.738;2022-08-19T05:30:08;18.20;99.90
47148;DHT22;32900;47.498;8.738;2022-08-19T05:32:36;18.10;99.90
47148;DHT22;32900;47.498;8.738;2022-08-19T05:35:04;18.10;99.90
47148;DHT22;32900;47.498;8.738;2022-08-19T05:37:31;18.20;99.90
47148;DHT22;32900;47.498;8.738;2022-08-19T05:39:57;18.20;99.90
47148;DHT22;32900;47.498;8.738;2022-08-19T05:42:24;18.20;99.90
47148;DHT22;32900;47.498;8.738;2022-08-19T05:44:52;18.20;99.90
47148;DHT22;32900;47.498;8.738;2022-08-19T05:47:19;18.20;99.90
47148;DHT22;32900;47.498;8.738;2022-08-19T05:49:47;18.10;99.90
47148;DHT22;32900;47.498;8.738;2022-08-19T05:52:16;18.20;99.90
47148;DHT22;32900;47.498;8.738;2022-08-19T05:54:45;18.20;99.90
47148;DHT22;32900;47.498;8.738;2022-08-19T05:57:18;18.20;99.90
47148;DHT22;32900;47.498;8.738;2022-08-19T05:59:45;18.10;99.90
47148;DHT22;32900;47.498;8.738;2022-08-19T06:02:14;18.10;99.90
47148;DHT22;32900;47.498;8.738;2022-08-19T06:04:41;18.10;99.90
47148;DHT22;32900;47.498;8.738;2022-08-19T06:07:09;18.20;99.90
47148;DHT22;32900;47.498;8.738;2022-08-19T06:09:39;18.30;99.90
47148;DHT22;32900;47.498;8.738;2022-08-19T06:12:06;18.20;99.90
47148;DHT22;32900;47.498;8.738;2022-08-19T06:14:34;18.20;99.90
47148;DHT22;32900;47.498;8.738;2022-08-19T06:17:07;18.20;99.90
47148;DHT22;32900;47.498;8.738;2022-08-19T06:19:35;18.20;99.90
47148;DHT22;32900;47.498;8.738;2022-08-19T06:22:06;18.20;99.90
47148;DHT22;32900;47.498;8.738;2022-08-19T06:24:34;18.20;99.90
47148;DHT22;32900;47.498;8.738;2022-08-19T06:27:02;18.20;99.90
47148;DHT22;32900;47.498;8.738;2022-08-19T06:29:29;18.20;99.90
47148;DHT22;32900;47.498;8.738;2022-08-19T06:31:58;18.20;99.90
47148;DHT22;32900;47.498;8.738;2022-08-19T06:34:28;18.20;99.90
47148;DHT22;32900;47.498;8.738;2022-08-19T06:36:57;18.20;99.90
47148;DHT22;32900;47.498;8.738;2022-08-19T06:39:32;18.30;99.90
47148;DHT22;32900;47.498;8.738;2022-08-19T06:42:01;18.30;99.90
47148;DHT22;32900;47.498;8.738;2022-08-19T06:44:30;18.20;99.90
47148;DHT22;32900;47.498;8.738;2022-08-19T06:47:07;18.20;99.90
47148;DHT22;32900;47.498;8.738;2022-08-19T06:49:40;18.10;99.90
47148;DHT22;32900;47.498;8.738;2022-08-19T06:52:08;18.10;99.90
47148;DHT22;32900;47.498;8.738;2022-08-19T06:54:40;18.10;99.90
47148;DHT22;32900;47.498;8.738;2022-08-19T06:57:23;18.10;99.90
47148;DHT22;32900;47.498;8.738;2022-08-19T06:59:50;18.10;99.90
47148;DHT22;32900;47.498;8.738;2022-08-19T07:02:18;18.10;99.90
47148;DHT22;32900;47.498;8.738;2022-08-19T07:04:45;18.20;99.90
47148;DHT22;32900;47.498;8.738;2022-08-19T07:07:14;18.10;99.90
47148;DHT22;32900;47.498;8.738;2022-08-19T07:09:47;18.10;99.90
47148;DHT22;32900;47.498;8.738;2022-08-19T07:12:28;18.00;99.90
47148;DHT22;32900;47.498;8.738;2022-08-19T07:14:56;18.00;99.90
47148;DHT22;32900;47.498;8.738;2022-08-19T07:17:24;18.00;99.90
47148;DHT22;32900;47.498;8.738;2022-08-19T07:19:51;18.10;99.90
47148;DHT22;32900;47.498;8.738;2022-08-19T07:22:21;18.10;99.90
47148;DHT22;32900;47.498;8.738;2022-08-19T07:24:51;18.00;99.90
47148;DHT22;32900;47.498;8.738;2022-08-19T07:27:18;18.00;99.90
47148;DHT22;32900;47.498;8.738;2022-08-19T07:29:50;18.00;99.90
47148;DHT22;32900;47.498;8.738;2022-08-19T07:32:23;18.10;99.90
47148;DHT22;32900;47.498;8.738;2022-08-19T07:34:53;18.20;99.90
47148;DHT22;32900;47.498;8.738;2022-08-19T07:37:22;18.20;99.90
47148;DHT22;32900;47.498;8.738;2022-08-19T07:39:49;18.20;99.90
47148;DHT22;32900;47.498;8.738;2022-08-19T07:42:16;18.20;99.90
47148;DHT22;32900;47.498;8.738;2022-08-19T07:44:44;18.00;99.90
47148;DHT22;32900;47.498;8.738;2022-08-19T07:47:17;18.10;99.90
47148;DHT22;32900;47.498;8.738;2022-08-19T07:50:08;18.10;99.90
47148;DHT22;32900;47.498;8.738;2022-08-19T07:52:36;18.10;99.90
47148;DHT22;32900;47.498;8.738;2022-08-19T07:55:06;18.20;99.90
47148;DHT22;32900;47.498;8.738;2022-08-19T07:57:54;18.10;99.90
47148;DHT22;32900;47.498;8.738;2022-08-19T08:00:21;18.10;99.90
47148;DHT22;32900;47.498;8.738;2022-08-19T08:02:50;18.00;99.90
47148;DHT22;32900;47.498;8.738;2022-08-19T08:05:17;18.10;99.90
47148;DHT22;32900;47.498;8.738;2022-08-19T08:08:08;18.10;99.90
47148;DHT22;32900;47.498;8.738;2022-08-19T08:10:53;18.10;99.90
47148;DHT22;32900;47.498;8.738;2022-08-19T08:13:24;18.20;99.90
47148;DHT22;32900;47.498;8.738;2022-08-19T08:15:52;18.20;99.90
47148;DHT22;32900;47.498;8.738;2022-08-19T08:18:22;18.10;99.90
47148;DHT22;32900;47.498;8.738;2022-08-19T08:20:57;18.10;99.90
47148;DHT22;32900;47.498;8.738;2022-08-19T08:23:24;18.10;99.90
47148;DHT22;32900;47.498;8.738;2022-08-19T08:25:56;18.00;99.90
47148;DHT22;32900;47.498;8.738;2022-08-19T08:28:25;18.00;99.90
47148;DHT22;32900;47.498;8.738;2022-08-19T08:30:56;18.10;99.90
47148;DHT22;32900;47.498;8.738;2022-08-19T08:33:26;18.10;99.90
47148;DHT22;32900;47.498;8.738;2022-08-19T08:36:10;18.10;99.90
47148;DHT22;32900;47.498;8.738;2022-08-19T08:38:38;18.10;99.90
47148;DHT22;32900;47.498;8.738;2022-08-19T08:43:56;18.20;99.90
47148;DHT22;32900;47.498;8.738;2022-08-19T08:46:39;18.20;99.90
47148;DHT22;32900;47.498;8.738;2022-08-19T08:51:46;18.00;99.90
47148;DHT22;32900;47.498;8.738;2022-08-19T08:54:30;18.00;99.90
47148;DHT22;32900;47.498;8.738;2022-08-19T08:57:02;18.10;99.90
47148;DHT22;32900;47.498;8.738;2022-08-19T08:59:35;17.90;99.90
47148;DHT22;32900;47.498;8.738;2022-08-19T09:02:03;17.90;99.90
47148;DHT22;32900;47.498;8.738;2022-08-19T09:04:30;17.90;99.90
47148;DHT22;32900;47.498;8.738;2022-08-19T09:09:45;17.90;99.90
47148;DHT22;32900;47.498;8.738;2022-08-19T09:12:33;17.90;99.90
47148;DHT22;32900;47.498;8.738;2022-08-19T09:15:07;17.80;99.90
47148;DHT22;32900;47.498;8.738;2022-08-19T09:17:35;17.90;99.90
47148;DHT22;32900;47.498;8.738;2022-08-19T09:22:41;17.80;99.90
47148;DHT22;32900;47.498;8.738;2022-08-19T09:25:13;17.70;99.90
47148;DHT22;32900;47.498;8.738;2022-08-19T09:27:41;17.80;99.90
47148;DHT22;32900;47.498;8.738;2022-08-19T09:30:15;17.80;99.90
47148;DHT22;32900;47.498;8.738;2022-08-19T09:32:44;17.80;99.90
47148;DHT22;32900;47.498;8.738;2022-08-19T09:35:12;17.80;99.90
47148;DHT22;32900;47.498;8.738;2022-08-19T09:37:42;17.80;99.90
47148;DHT22;32900;47.498;8.738;2022-08-19T09:40:24;17.80;99.90
47148;DHT22;32900;47.498;8.738;2022-08-19T09:42:56;17.90;99.90
47148;DHT22;32900;47.498;8.738;2022-08-19T09:45:36;18.00;99.90
47148;DHT22;32900;47.498;8.738;2022-08-19T09:48:05;17.90;99.90
47148;DHT22;32900;47.498;8.738;2022-08-19T09:50:49;18.00;99.90
47148;DHT22;32900;47.498;8.738;2022-08-19T09:53:26;18.00;99.90
47148;DHT22;32900;47.498;8.738;2022-08-19T09:55:58;17.90;99.90
47148;DHT22;32900;47.498;8.738;2022-08-19T09:58:44;18.00;99.90
47148;DHT22;32900;47.498;8.738;2022-08-19T10:01:22;18.00;99.90
47148;DHT22;32900;47.498;8.738;2022-08-19T10:03:59;18.10;99.90
47148;DHT22;32900;47.498;8.738;2022-08-19T10:06:29;18.00;99.90
47148;DHT22;32900;47.498;8.738;2022-08-19T10:09:14;17.90;99.90
47148;DHT22;32900;47.498;8.738;2022-08-19T10:11:52;18.00;99.90
47148;DHT22;32900;47.498;8.738;2022-08-19T10:14:31;17.90;99.90
47148;DHT22;32900;47.498;8.738;2022-08-19T10:17:01;17.90;99.90
47148;DHT22;32900;47.498;8.738;2022-08-19T10:19:47;17.90;99.90
47148;DHT22;32900;47.498;8.738;2022-08-19T10:22:22;18.00;99.90
47148;DHT22;32900;47.498;8.738;2022-08-19T10:24:58;18.00;99.90
47148;DHT22;32900;47.498;8.738;2022-08-19T10:27:32;18.00;99.90
47148;DHT22;32900;47.498;8.738;2022-08-19T10:30:02;18.00;99.90
47148;DHT22;32900;47.498;8.738;2022-08-19T10:32:35;18.00;99.90
47148;DHT22;32900;47.498;8.738;2022-08-19T10:35:13;17.90;99.90
47148;DHT22;32900;47.498;8.738;2022-08-19T10:37:48;17.90;99.90
47148;DHT22;32900;47.498;8.738;2022-08-19T10:40:28;17.90;99.90
47148;DHT22;32900;47.498;8.738;2022-08-19T10:42:58;18.00;99.90
47148;DHT22;32900;47.498;8.738;2022-08-19T10:45:33;17.90;99.90
47148;DHT22;32900;47.498;8.738;2022-08-19T10:48:01;17.90;99.90
47148;DHT22;32900;47.498;8.738;2022-08-19T10:50:44;17.90;99.90
47148;DHT22;32900;47.498;8.738;2022-08-19T10:53:50;17.90;99.90
47148;DHT22;32900;47.498;8.738;2022-08-19T10:56:23;17.90;99.90
47148;DHT22;32900;47.498;8.738;2022-08-19T10:59:27;17.90;99.90
47148;DHT22;32900;47.498;8.738;2022-08-19T11:02:04;17.80;99.90
47148;DHT22;32900;47.498;8.738;2022-08-19T11:04:40;17.90;99.90
47148;DHT22;32900;47.498;8.738;2022-08-19T11:07:08;17.90;99.90
47148;DHT22;32900;47.498;8.738;2022-08-19T11:09:41;17.80;99.90
47148;DHT22;32900;47.498;8.738;2022-08-19T11:12:15;17.80;99.90
47148;DHT22;32900;47.498;8.738;2022-08-19T11:14:55;17.90;99.90
47148;DHT22;32900;47.498;8.738;2022-08-19T11:22:18;17.90;99.90
47148;DHT22;32900;47.498;8.738;2022-08-19T11:28:41;18.00;99.90
47148;DHT22;32900;47.498;8.738;2022-08-19T11:31:46;17.90;99.90
47148;DHT22;32900;47.498;8.738;2022-08-19T11:37:17;17.90;99.90
47148;DHT22;32900;47.498;8.738;2022-08-19T11:39:46;17.90;99.90
47148;DHT22;32900;47.498;8.738;2022-08-19T11:42:20;17.90;99.90
47148;DHT22;32900;47.498;8.738;2022-08-19T11:45:30;17.80;99.90
47148;DHT22;32900;47.498;8.738;2022-08-19T11:47:57;17.90;99.90
47148;DHT22;32900;47.498;8.738;2022-08-19T11:50:23;18.00;99.90
47148;DHT22;32900;47.498;8.738;2022-08-19T11:52:54;17.90;99.90
47148;DHT22;32900;47.498;8.738;2022-08-19T11:55:21;17.80;99.90
47148;DHT22;32900;47.498;8.738;2022-08-19T11:57:48;17.80;99.90
47148;DHT22;32900;47.498;8.738;2022-08-19T12:00:15;18.00;99.90
47148;DHT22;32900;47.498;8.738;2022-08-19T12:02:42;18.10;99.90
47148;DHT22;32900;47.498;8.738;2022-08-19T12:05:09;18.10;99.90
47148;DHT22;32900;47.498;8.738;2022-08-19T12:07:39;18.10;99.90
47148;DHT22;32900;47.498;8.738;2022-08-19T12:10:07;18.20;99.90
47148;DHT22;32900;47.498;8.738;2022-08-19T12:12:34;18.10;99.90
47148;DHT22;32900;47.498;8.738;2022-08-19T12:17:51;18.00;99.90
47148;DHT22;32900;47.498;8.738;2022-08-19T12:20:29;18.20;99.90
47148;DHT22;32900;47.498;8.738;2022-08-19T12:29:15;18.60;99.90
47148;DHT22;32900;47.498;8.738;2022-08-19T12:40:58;18.70;99.90
47148;DHT22;32900;47.498;8.738;2022-08-19T12:43:26;19.10;99.90
47148;DHT22;32900;47.498;8.738;2022-08-19T12:45:54;18.90;99.90
47148;DHT22;32900;47.498;8.738;2022-08-19T12:48:22;18.60;99.90
47148;DHT22;32900;47.498;8.738;2022-08-19T12:51:30;18.50;99.90
47148;DHT22;32900;47.498;8.738;2022-08-19T12:54:22;18.50;99.90
47148;DHT22;32900;47.498;8.738;2022-08-19T12:59:39;18.30;99.90
47148;DHT22;32900;47.498;8.738;2022-08-19T13:02:07;18.40;99.90
47148;DHT22;32900;47.498;8.738;2022-08-19T13:04:35;18.30;99.90
47148;DHT22;32900;47.498;8.738;2022-08-19T13:12:58;18.40;99.90
47148;DHT22;32900;47.498;8.738;2022-08-19T13:15:46;18.80;99.90
47148;DHT22;32900;47.498;8.738;2022-08-19T13:18:14;19.10;99.90
47148;DHT22;32900;47.498;8.738;2022-08-19T15:26:04;19.40;99.90
47148;DHT22;32900;47.498;8.738;2022-08-19T15:28:42;19.40;99.90
47148;DHT22;32900;47.498;8.738;2022-08-19T15:31:09;19.20;99.90
47148;DHT22;32900;47.498;8.738;2022-08-19T15:33:54;19.10;99.90
47148;DHT22;32900;47.498;8.738;2022-08-19T15:36:23;19.30;99.90
47148;DHT22;32900;47.498;8.738;2022-08-19T15:38:51;19.20;99.90
47148;DHT22;32900;47.498;8.738;2022-08-19T15:41:23;19.40;99.90
47148;DHT22;32900;47.498;8.738;2022-08-19T15:44:12;19.30;99.90
47148;DHT22;32900;47.498;8.738;2022-08-19T15:46:42;19.00;99.90
47148;DHT22;32900;47.498;8.738;2022-08-19T15:49:11;19.40;99.90
47148;DHT22;32900;47.498;8.738;2022-08-19T15:51:39;19.30;99.90
47148;DHT22;32900;47.498;8.738;2022-08-19T15:54:10;19.30;99.90
47148;DHT22;32900;47.498;8.738;2022-08-19T15:56:38;19.30;99.90
47148;DHT22;32900;47.498;8.738;2022-08-19T15:59:24;19.10;99.90
47148;DHT22;32900;47.498;8.738;2022-08-19T16:02:14;19.20;99.90
47148;DHT22;32900;47.498;8.738;2022-08-19T16:05:00;19.20;99.90
47148;DHT22;32900;47.498;8.738;2022-08-19T16:08:05;18.90;99.90
47148;DHT22;32900;47.498;8.738;2022-08-19T16:10:33;18.90;99.90
47148;DHT22;32900;47.498;8.738;2022-08-19T16:13:00;19.00;99.90
47148;DHT22;32900;47.498;8.738;2022-08-19T16:15:29;18.80;99.90
47148;DHT22;32900;47.498;8.738;2022-08-19T16:17:56;18.80;99.90
47148;DHT22;32900;47.498;8.738;2022-08-19T16:20:24;18.90;99.90
47148;DHT22;32900;47.498;8.738;2022-08-19T16:22:54;18.80;99.90
47148;DHT22;32900;47.498;8.738;2022-08-19T16:25:22;18.80;99.90
47148;DHT22;32900;47.498;8.738;2022-08-19T16:27:53;18.80;99.90
47148;DHT22;32900;47.498;8.738;2022-08-19T16:30:34;19.10;99.90
47148;DHT22;32900;47.498;8.738;2022-08-19T16:33:01;19.30;99.90
47148;DHT22;32900;47.498;8.738;2022-08-19T16:35:28;18.90;99.90
47148;DHT22;32900;47.498;8.738;2022-08-19T16:37:54;19.10;99.90
47148;DHT22;32900;47.498;8.738;2022-08-19T16:40:22;19.20;99.90
47148;DHT22;32900;47.498;8.738;2022-08-19T16:42:49;19.30;99.90
47148;DHT22;32900;47.498;8.738;2022-08-19T16:45:16;19.40;99.90
47148;DHT22;32900;47.498;8.738;2022-08-19T16:47:44;19.30;99.90
47148;DHT22;32900;47.498;8.738;2022-08-19T16:50:11;19.30;99.90
47148;DHT22;32900;47.498;8.738;2022-08-19T16:52:38;19.30;99.90
47148;DHT22;32900;47.498;8.738;2022-08-19T16:55:05;19.20;99.90
47148;DHT22;32900;47.498;8.738;2022-08-19T16:57:33;19.00;99.90
47148;DHT22;32900;47.498;8.738;2022-08-19T17:00:00;19.10;99.90
47148;DHT22;32900;47.498;8.738;2022-08-19T17:02:34;19.10;99.90
47148;DHT22;32900;47.498;8.738;2022-08-19T17:05:02;18.80;99.90
47148;DHT22;32900;47.498;8.738;2022-08-19T17:07:29;18.80;99.90
47148;DHT22;32900;47.498;8.738;2022-08-19T17:10:00;18.70;99.90
47148;DHT22;32900;47.498;8.738;2022-08-19T17:12:26;19.10;99.90
47148;DHT22;32900;47.498;8.738;2022-08-19T17:15:02;18.80;99.90
47148;DHT22;32900;47.498;8.738;2022-08-19T17:17:30;18.90;99.90
47148;DHT22;32900;47.498;8.738;2022-08-19T17:19:58;18.70;99.90
47148;DHT22;32900;47.498;8.738;2022-08-19T17:22:25;18.80;99.90
47148;DHT22;32900;47.498;8.738;2022-08-19T17:24:52;18.50;99.90
47148;DHT22;32900;47.498;8.738;2022-08-19T17:27:24;18.60;99.90
47148;DHT22;32900;47.498;8.738;2022-08-19T17:29:51;19.10;99.90
47148;DHT22;32900;47.498;8.738;2022-08-19T17:32:18;19.10;99.90
47148;DHT22;32900;47.498;8.738;2022-08-19T17:34:51;19.20;99.90
47148;DHT22;32900;47.498;8.738;2022-08-19T17:37:19;18.80;99.90
47148;DHT22;32900;47.498;8.738;2022-08-19T17:39:46;19.00;99.90
47148;DHT22;32900;47.498;8.738;2022-08-19T17:42:13;18.80;99.90
47148;DHT22;32900;47.498;8.738;2022-08-19T17:44:40;18.80;99.90
47148;DHT22;32900;47.498;8.738;2022-08-19T17:47:07;19.10;99.90
47148;DHT22;32900;47.498;8.738;2022-08-19T17:49:34;19.10;99.90
47148;DHT22;32900;47.498;8.738;2022-08-19T17:52:03;19.00;99.90
47148;DHT22;32900;47.498;8.738;2022-08-19T17:54:35;19.40;99.90
47148;DHT22;32900;47.498;8.738;2022-08-19T17:57:04;19.30;99.90
47148;DHT22;32900;47.498;8.738;2022-08-19T17:59:31;19.20;99.90
47148;DHT22;32900;47.498;8.738;2022-08-19T18:01:58;19.20;99.90
47148;DHT22;32900;47.498;8.738;2022-08-19T18:04:25;19.00;99.90
47148;DHT22;32900;47.498;8.738;2022-08-19T18:06:53;18.70;99.90
47148;DHT22;32900;47.498;8.738;2022-08-19T18:09:26;18.50;99.90
47148;DHT22;32900;47.498;8.738;2022-08-19T18:12:09;18.60;99.90
47148;DHT22;32900;47.498;8.738;2022-08-19T18:14:38;18.50;99.90
47148;DHT22;32900;47.498;8.738;2022-08-19T18:17:08;18.40;99.90
47148;DHT22;32900;47.498;8.738;2022-08-19T18:19:40;18.50;99.90
47148;DHT22;32900;47.498;8.738;2022-08-19T18:22:30;18.70;99.90
47148;DHT22;32900;47.498;8.738;2022-08-19T18:25:17;18.50;99.90
47148;DHT22;32900;47.498;8.738;2022-08-19T18:27:48;18.60;99.90
47148;DHT22;32900;47.498;8.738;2022-08-19T18:30:15;18.50;99.90
47148;DHT22;32900;47.498;8.738;2022-08-19T18:32:42;18.40;99.90
47148;DHT22;32900;47.498;8.738;2022-08-19T18:35:14;18.70;99.90
47148;DHT22;32900;47.498;8.738;2022-08-19T18:37:42;18.80;99.90
47148;DHT22;32900;47.498;8.738;2022-08-19T18:40:14;18.60;99.90
47148;DHT22;32900;47.498;8.738;2022-08-19T18:43:00;18.90;99.90
47148;DHT22;32900;47.498;8.738;2022-08-19T18:45:42;18.90;99.90
47148;DHT22;32900;47.498;8.738;2022-08-19T18:48:28;18.80;99.90
47148;DHT22;32900;47.498;8.738;2022-08-19T18:51:15;19.10;99.90
47148;DHT22;32900;47.498;8.738;2022-08-19T18:53:44;19.10;99.90
47148;DHT22;32900;47.498;8.738;2022-08-19T18:56:13;19.00;99.90
47148;DHT22;32900;47.498;8.738;2022-08-19T18:58:41;18.80;99.90
47148;DHT22;32900;47.498;8.738;2022-08-19T19:01:11;18.70;99.90
47148;DHT22;32900;47.498;8.738;2022-08-19T19:03:41;18.70;99.90
47148;DHT22;32900;47.498;8.738;2022-08-19T19:06:14;18.70;99.90
47148;DHT22;32900;47.498;8.738;2022-08-19T19:08:41;18.50;99.90
47148;DHT22;32900;47.498;8.738;2022-08-19T19:11:08;18.50;99.90
47148;DHT22;32900;47.498;8.738;2022-08-19T19:13:35;18.80;99.90
47148;DHT22;32900;47.498;8.738;2022-08-19T19:16:06;18.70;99.90
47148;DHT22;32900;47.498;8.738;2022-08-19T19:18:35;18.60;99.90
47148;DHT22;32900;47.498;8.738;2022-08-19T19:21:03;19.00;99.90
47148;DHT22;32900;47.498;8.738;2022-08-19T19:23:29;18.90;99.90
47148;DHT22;32900;47.498;8.738;2022-08-19T19:25:56;18.60;99.90
47148;DHT22;32900;47.498;8.738;2022-08-19T19:28:23;18.60;99.90